Time;durP1;ratioP1;P1;durP2;ratioP2;P2;SDS_P1;SDS_P2;PMS_P1;PMS_P2;Temp;Humidity;BMP_temperature;BMP_pressure;BME280_temperature;BME280_humidity;BME280_pressure;Samples;Min_cycle;Max_cycle;Signal;HPM_P1;HPM_P2
2022/11/14 00:00:03;;;;;;;21.23;13.15;;;9.90;99.90;;;;;;5088959;28;20067;-66
2022/11/14 00:02:30;;;;;;;18.90;12.35;;;9.80;99.90;;;;;;5087969;28;20279;-64
2022/11/14 00:04:57;;;;;;;24.45;12.95;;;9.80;99.90;;;;;;5089351;28;20612;-64
2022/11/14 00:07:23;;;;;;;21.98;13.43;;;9.80;99.90;;;;;;5087798;28;20044;-64
2022/11/14 00:09:50;;;;;;;20.35;12.65;;;9.70;99.90;;;;;;5079263;28;20050;-65
2022/11/14 00:12:17;;;;;;;19.55;12.15;;;9.70;99.90;;;;;;5079613;28;20032;-64
2022/11/14 00:14:44;;;;;;;22.67;13.48;;;9.70;99.90;;;;;;5087410;28;20044;-65
2022/11/14 00:17:11;;;;;;;19.02;12.50;;;9.70;99.90;;;;;;5087268;28;20076;-65
2022/11/14 00:19:37;;;;;;;17.63;12.45;;;9.70;99.90;;;;;;5088847;28;20056;-64
2022/11/14 00:22:06;;;;;;;17.25;11.90;;;9.60;99.90;;;;;;5086647;28;20051;-64
2022/11/14 00:24:33;;;;;;;17.15;12.27;;;9.70;99.90;;;;;;5088732;28;20123;-64
2022/11/14 00:27:00;;;;;;;18.92;11.65;;;9.60;99.90;;;;;;5088844;28;20499;-64
2022/11/14 00:29:27;;;;;;;15.07;11.25;;;9.60;99.90;;;;;;5089239;28;20050;-64
2022/11/14 00:31:54;;;;;;;11.05;7.93;;;9.60;99.90;;;;;;5087592;28;20052;-65
2022/11/14 00:34:20;;;;;;;16.17;9.98;;;9.60;99.90;;;;;;5088205;28;20048;-64
2022/11/14 00:36:47;;;;;;;14.40;10.13;;;9.50;99.90;;;;;;5089123;28;20048;-63
2022/11/14 00:39:14;;;;;;;15.00;8.82;;;9.50;99.90;;;;;;5088559;28;20131;-64
2022/11/14 00:41:42;;;;;;;17.05;10.60;;;9.50;99.90;;;;;;5088105;28;20048;-64
2022/11/14 00:44:10;;;;;;;16.88;9.77;;;9.50;99.90;;;;;;5089257;28;20083;-64
2022/11/14 00:46:37;;;;;;;13.85;9.57;;;9.50;99.90;;;;;;5091155;28;20048;-65
2022/11/14 00:49:04;;;;;;;17.63;8.80;;;9.40;99.90;;;;;;5079033;28;20044;-65
2022/11/14 00:51:31;;;;;;;13.68;9.63;;;9.40;99.90;;;;;;5098625;28;20131;-65
2022/11/14 00:53:57;;;;;;;12.90;8.90;;;9.30;99.90;;;;;;5101186;28;20119;-64
2022/11/14 00:56:24;;;;;;;17.58;8.60;;;9.30;99.90;;;;;;5102067;28;20147;-64
2022/11/14 01:01:25;;;;;;;13.10;8.43;;;9.20;99.90;;;;;;4852075;22;20040;-53
2022/11/14 01:03:52;;;;;;;15.32;8.93;;;9.20;99.90;;;;;;5100075;28;20050;-57
2022/11/14 01:06:19;;;;;;;19.45;12.73;;;9.20;99.90;;;;;;5106729;28;20091;-51
2022/11/14 01:08:46;;;;;;;18.65;10.50;;;9.20;99.90;;;;;;5106250;28;20044;-56
2022/11/14 01:11:17;;;;;;;14.63;9.90;;;9.20;99.90;;;;;;5082371;28;20059;-54
2022/11/14 01:13:44;;;;;;;17.83;9.75;;;9.20;99.90;;;;;;5091843;28;20036;-55
2022/11/14 01:16:11;;;;;;;21.80;11.30;;;9.20;99.90;;;;;;5101770;28;20044;-53
2022/11/14 01:18:38;;;;;;;24.88;11.85;;;9.20;99.90;;;;;;5092038;28;20131;-54
2022/11/14 01:21:06;;;;;;;26.15;11.88;;;9.20;99.90;;;;;;5083889;28;20476;-57
2022/11/14 01:23:33;;;;;;;18.95;9.82;;;9.30;99.90;;;;;;5072971;28;20041;-53
2022/11/14 01:26:07;;;;;;;23.15;12.57;;;9.20;99.90;;;;;;5102784;28;20047;-55
2022/11/14 01:28:34;;;;;;;21.55;12.05;;;9.20;99.90;;;;;;5072801;28;20482;-57
2022/11/14 01:31:21;;;;;;;30.02;15.20;;;9.20;99.90;;;;;;5084491;28;20048;-56
2022/11/14 01:33:49;;;;;;;39.10;15.50;;;9.30;99.90;;;;;;5090398;28;20079;-55
2022/11/14 01:36:16;;;;;;;28.77;16.08;;;9.30;99.90;;;;;;5102573;28;20044;-57
2022/11/14 01:38:43;;;;;;;35.20;16.40;;;9.30;99.90;;;;;;5090345;28;20048;-55
2022/11/14 01:41:12;;;;;;;35.55;18.73;;;9.40;99.90;;;;;;5102909;28;20123;-56
2022/11/14 01:43:42;;;;;;;36.30;16.17;;;9.40;99.90;;;;;;5072710;28;20052;-56
2022/11/14 01:46:13;;;;;;;45.72;17.65;;;9.40;99.90;;;;;;5102087;28;20049;-52
2022/11/14 01:49:05;;;;;;;44.30;16.02;;;9.50;99.90;;;;;;5090010;28;20245;-56
2022/11/14 01:51:46;;;;;;;40.55;18.00;;;9.50;99.90;;;;;;4376759;28;9999947;-56
2022/11/14 01:54:25;;;;;;;27.73;16.38;;;9.60;99.90;;;;;;5092413;28;20062;-53
2022/11/14 01:56:55;;;;;;;28.20;16.35;;;9.80;99.90;;;;;;5057572;28;20043;-56
2022/11/14 01:59:24;;;;;;;28.23;17.10;;;9.70;99.90;;;;;;5074119;28;20051;-52
2022/11/14 02:01:51;;;;;;;24.65;16.85;;;9.80;99.90;;;;;;5078390;28;20052;-55
2022/11/14 02:04:24;;;;;;;25.25;15.57;;;9.80;99.90;;;;;;5092402;28;20100;-54
2022/11/14 02:07:00;;;;;;;22.48;14.30;;;9.90;99.90;;;;;;5078822;28;20050;-56
2022/11/14 02:09:28;;;;;;;25.85;17.35;;;9.90;99.90;;;;;;5072931;28;20320;-50
2022/11/14 02:11:55;;;;;;;24.30;15.95;;;10.00;99.90;;;;;;5067312;28;20136;-56
2022/11/14 02:14:22;;;;;;;24.10;16.17;;;10.00;99.90;;;;;;5091854;28;20052;-57
2022/11/14 02:16:49;;;;;;;27.42;19.45;;;10.10;99.90;;;;;;5081656;28;20214;-55
2022/11/14 02:19:41;;;;;;;22.45;16.25;;;10.20;99.90;;;;;;5109636;28;20047;-52
2022/11/14 02:22:07;;;;;;;24.50;16.58;;;10.30;99.90;;;;;;5098527;28;20048;-52
2022/11/14 02:24:34;;;;;;;24.75;17.10;;;10.30;99.90;;;;;;5095858;28;20047;-54
2022/11/14 02:27:02;;;;;;;22.58;15.15;;;10.40;99.90;;;;;;5097252;28;20130;-55
2022/11/14 02:29:30;;;;;;;21.95;14.77;;;10.40;99.90;;;;;;5075317;28;20061;-55
2022/11/14 02:31:57;;;;;;;25.92;15.90;;;10.40;99.90;;;;;;5077268;28;20054;-53
2022/11/14 02:34:24;;;;;;;22.88;16.13;;;10.40;99.90;;;;;;5095560;28;20122;-54
2022/11/14 02:36:50;;;;;;;20.05;14.52;;;10.50;99.90;;;;;;5092621;28;20043;-55
2022/11/14 02:39:17;;;;;;;21.40;15.45;;;10.50;99.90;;;;;;5097748;28;20514;-52
2022/11/14 02:41:44;;;;;;;22.65;14.95;;;10.50;99.90;;;;;;5090193;28;20130;-53
2022/11/14 02:44:10;;;;;;;20.63;14.68;;;10.50;99.90;;;;;;5098333;28;20126;-53
2022/11/14 02:46:37;;;;;;;21.63;14.68;;;10.50;99.90;;;;;;5107220;28;20126;-52
2022/11/14 02:49:04;;;;;;;22.90;15.45;;;10.50;99.90;;;;;;5097469;28;20051;-55
2022/11/14 02:51:31;;;;;;;22.27;14.85;;;10.50;99.90;;;;;;5107914;28;20187;-55
2022/11/14 02:53:57;;;;;;;21.95;14.85;;;10.50;99.90;;;;;;5096780;28;20040;-55
2022/11/14 02:56:24;;;;;;;21.35;14.85;;;10.50;99.90;;;;;;5109406;28;20043;-55
2022/11/14 02:58:51;;;;;;;20.52;14.98;;;10.50;99.90;;;;;;5095694;28;20517;-54
2022/11/14 03:01:18;;;;;;;24.45;14.30;;;10.50;99.90;;;;;;5108746;28;20058;-54
2022/11/14 03:03:47;;;;;;;21.05;14.60;;;10.40;99.90;;;;;;5095504;28;20055;-52
2022/11/14 03:06:14;;;;;;;20.02;14.57;;;10.40;99.90;;;;;;5108824;28;20046;-54
2022/11/14 03:08:41;;;;;;;22.75;15.20;;;10.40;99.90;;;;;;5097252;28;20138;-55
2022/11/14 03:11:08;;;;;;;26.45;16.33;;;10.30;99.90;;;;;;5106641;28;20059;-54
2022/11/14 03:13:35;;;;;;;23.27;15.32;;;10.20;99.90;;;;;;5100015;28;20048;-53
2022/11/14 03:16:09;;;;;;;29.60;17.08;;;10.10;99.90;;;;;;5104099;28;20044;-55
2022/11/14 03:18:35;;;;;;;30.60;18.15;;;10.10;99.90;;;;;;5083255;28;20047;-54
2022/11/14 03:21:10;;;;;;;36.42;18.65;;;10.00;99.90;;;;;;5102881;28;20490;-53
2022/11/14 03:23:37;;;;;;;37.72;20.10;;;9.90;99.90;;;;;;5102139;28;20672;-55
2022/11/14 03:26:05;;;;;;;74.57;20.10;;;9.90;99.90;;;;;;5101352;28;20039;-54
2022/11/14 03:28:32;;;;;;;95.32;21.08;;;9.80;99.90;;;;;;5104399;28;20442;-53
2022/11/14 03:30:58;;;;;;;52.47;20.90;;;9.80;99.90;;;;;;5098981;28;20048;-54
2022/11/14 03:33:25;;;;;;;40.45;20.27;;;9.70;99.90;;;;;;5106268;28;20512;-55
2022/11/14 03:35:52;;;;;;;36.83;19.42;;;9.80;99.90;;;;;;5096721;28;20049;-55
2022/11/14 03:38:21;;;;;;;25.65;16.33;;;9.80;99.90;;;;;;5106646;28;20251;-53
2022/11/14 03:40:51;;;;;;;27.90;18.35;;;9.80;99.90;;;;;;5096786;28;20035;-55
2022/11/14 03:43:18;;;;;;;26.05;17.73;;;9.80;99.90;;;;;;5106884;28;20058;-55
2022/11/14 03:45:45;;;;;;;27.75;17.17;;;9.80;99.90;;;;;;5096185;28;20112;-56
2022/11/14 03:48:12;;;;;;;35.63;17.75;;;9.80;99.90;;;;;;5107759;28;20536;-56
2022/11/14 03:50:39;;;;;;;28.13;17.83;;;9.80;99.90;;;;;;5094971;28;20409;-55
2022/11/14 03:53:06;;;;;;;26.17;16.92;;;9.80;99.90;;;;;;5108148;28;20057;-53
2022/11/14 03:55:33;;;;;;;25.80;15.77;;;9.80;99.90;;;;;;5076683;28;20055;-55
2022/11/14 03:58:00;;;;;;;28.73;16.48;;;9.70;99.90;;;;;;5089778;28;20044;-56
2022/11/14 04:00:27;;;;;;;31.67;17.10;;;9.70;99.90;;;;;;5096353;28;20063;-51
2022/11/14 04:02:57;;;;;;;30.50;17.80;;;9.70;99.90;;;;;;5106343;28;20040;-52
2022/11/14 04:05:24;;;;;;;27.00;16.33;;;9.70;99.90;;;;;;5103867;28;20134;-55
2022/11/14 04:07:51;;;;;;;28.05;14.63;;;9.60;99.90;;;;;;5107500;28;20039;-54
2022/11/14 04:10:18;;;;;;;24.58;16.42;;;9.70;99.90;;;;;;5102931;28;20101;-54
2022/11/14 04:12:51;;;;;;;22.33;15.40;;;9.70;99.90;;;;;;5092999;28;20487;-54
2022/11/14 04:15:18;;;;;;;27.48;15.52;;;9.60;99.90;;;;;;5092052;28;20106;-53
2022/11/14 04:17:45;;;;;;;23.77;16.05;;;9.60;99.90;;;;;;5094539;28;20070;-55
2022/11/14 04:20:12;;;;;;;26.23;15.88;;;9.60;99.90;;;;;;5090471;28;20038;-55
2022/11/14 04:22:39;;;;;;;22.05;15.27;;;9.60;99.90;;;;;;5079990;28;20132;-55
2022/11/14 04:25:07;;;;;;;20.35;14.10;;;9.70;99.90;;;;;;5092803;28;20584;-54
2022/11/14 04:27:34;;;;;;;21.33;12.40;;;9.60;99.90;;;;;;5102573;28;20050;-55
2022/11/14 04:30:01;;;;;;;16.58;11.57;;;9.60;99.90;;;;;;5074481;28;20056;-54
2022/11/14 04:32:27;;;;;;;18.58;12.00;;;9.70;99.90;;;;;;5102499;28;20220;-54
2022/11/14 04:34:54;;;;;;;15.82;10.57;;;9.70;99.90;;;;;;5091102;28;20048;-58
2022/11/14 04:37:21;;;;;;;16.02;10.35;;;9.70;99.90;;;;;;5098852;28;20050;-56
2022/11/14 04:39:48;;;;;;;16.55;10.18;;;9.70;99.90;;;;;;5093477;28;20051;-61
2022/11/14 04:42:15;;;;;;;13.75;9.02;;;9.80;99.90;;;;;;5098087;28;20040;-56
2022/11/14 04:44:41;;;;;;;12.68;8.68;;;9.80;99.90;;;;;;5111260;28;20047;-55
2022/11/14 04:47:08;;;;;;;10.85;7.93;;;9.80;99.90;;;;;;5098660;28;20141;-54
2022/11/14 04:49:35;;;;;;;12.95;7.20;;;9.80;99.90;;;;;;5111157;28;20493;-54
2022/11/14 04:52:02;;;;;;;8.63;6.78;;;9.80;99.90;;;;;;5101134;28;20042;-54
2022/11/14 04:54:29;;;;;;;12.48;7.38;;;9.90;99.90;;;;;;5108532;28;20048;-55
2022/11/14 04:56:55;;;;;;;11.25;6.75;;;9.90;99.90;;;;;;5103051;28;20123;-54
2022/11/14 04:59:22;;;;;;;8.65;5.82;;;9.90;99.90;;;;;;5106373;28;20087;-53
2022/11/14 05:01:49;;;;;;;8.23;6.28;;;9.90;99.90;;;;;;5105160;28;20052;-54
2022/11/14 05:04:16;;;;;;;9.90;6.15;;;10.00;99.90;;;;;;5103420;28;20139;-55
2022/11/14 05:06:42;;;;;;;7.85;5.25;;;10.10;99.90;;;;;;5107626;28;20044;-54
2022/11/14 05:09:09;;;;;;;8.90;6.22;;;10.10;99.90;;;;;;5101029;28;20139;-55
2022/11/14 05:11:36;;;;;;;8.25;5.50;;;10.10;99.90;;;;;;5109188;28;20123;-55
2022/11/14 05:14:02;;;;;;;8.52;6.28;;;10.10;99.90;;;;;;5099490;28;20043;-53
2022/11/14 05:16:29;;;;;;;12.05;7.05;;;10.10;99.90;;;;;;5108809;28;20047;-56
2022/11/14 05:18:56;;;;;;;8.68;6.35;;;10.10;99.90;;;;;;5099464;28;20039;-54
2022/11/14 05:21:23;;;;;;;8.43;6.50;;;10.10;99.90;;;;;;5110638;28;20469;-54
2022/11/14 05:23:49;;;;;;;9.95;6.43;;;10.10;99.90;;;;;;5079313;28;20039;-55
2022/11/14 05:26:17;;;;;;;8.43;5.55;;;10.10;99.90;;;;;;5110849;28;20379;-54
2022/11/14 05:28:43;;;;;;;11.75;7.25;;;10.10;99.90;;;;;;5097340;28;20067;-53
2022/11/14 05:31:16;;;;;;;10.43;6.85;;;10.10;99.90;;;;;;5110304;28;20524;-50
2022/11/14 05:33:44;;;;;;;9.68;6.43;;;10.10;99.90;;;;;;5080422;28;20055;-51
2022/11/14 05:36:12;;;;;;;11.63;6.60;;;10.10;99.90;;;;;;5110269;28;20505;-52
2022/11/14 05:38:39;;;;;;;10.30;6.78;;;10.10;99.90;;;;;;5099432;28;20051;-54
2022/11/14 05:41:07;;;;;;;13.15;6.88;;;10.10;99.90;;;;;;5108172;28;20073;-54
2022/11/14 05:43:34;;;;;;;9.48;6.30;;;10.10;99.90;;;;;;5101882;28;20054;-55
2022/11/14 05:46:05;;;;;;;8.65;6.10;;;10.10;99.90;;;;;;5105706;28;20160;-52
2022/11/14 05:48:32;;;;;;;8.38;5.72;;;10.10;99.90;;;;;;5085191;28;20306;-55
2022/11/14 05:51:01;;;;;;;9.82;6.50;;;10.10;99.90;;;;;;5104104;28;20101;-56
2022/11/14 05:53:28;;;;;;;7.63;5.43;;;10.10;99.90;;;;;;5105105;28;20043;-53
2022/11/14 05:55:59;;;;;;;10.75;6.38;;;10.10;99.90;;;;;;5102180;28;20062;-56
2022/11/14 05:58:26;;;;;;;16.48;6.50;;;10.10;99.90;;;;;;5073288;28;20043;-55
2022/11/14 06:01:02;;;;;;;13.00;7.82;;;10.10;99.90;;;;;;5081883;28;20358;-55
2022/11/14 06:03:32;;;;;;;9.95;6.45;;;10.10;99.90;;;;;;5107733;28;20070;-56
2022/11/14 06:06:03;;;;;;;13.27;6.38;;;10.10;99.90;;;;;;5099551;28;20043;-56
2022/11/14 06:08:30;;;;;;;13.05;6.75;;;10.00;99.90;;;;;;5107924;28;20486;-54
2022/11/14 06:11:08;;;;;;;12.55;6.55;;;9.90;99.90;;;;;;5098556;28;20047;-54
2022/11/14 06:13:35;;;;;;;8.95;6.32;;;9.90;99.90;;;;;;5107490;28;20055;-55
2022/11/14 06:16:10;;;;;;;9.90;6.18;;;9.90;99.90;;;;;;5097647;28;20048;-53
2022/11/14 06:18:36;;;;;;;10.05;6.70;;;9.90;99.90;;;;;;5107761;28;20054;-54
2022/11/14 06:21:15;;;;;;;9.07;5.80;;;9.90;99.90;;;;;;5098205;28;20043;-52
2022/11/14 06:23:41;;;;;;;8.57;5.55;;;9.90;99.90;;;;;;5107690;28;20043;-56
2022/11/14 06:26:22;;;;;;;8.00;4.75;;;9.90;99.90;;;;;;5097876;28;20039;-55
2022/11/14 06:28:49;;;;;;;6.32;5.03;;;9.90;99.90;;;;;;5107978;28;20048;-55
2022/11/14 06:31:17;;;;;;;9.88;6.80;;;9.80;99.90;;;;;;5098316;28;20039;-53
2022/11/14 06:33:43;;;;;;;12.50;6.70;;;9.90;99.90;;;;;;5110435;28;20054;-56
2022/11/14 06:36:10;;;;;;;12.68;7.43;;;9.80;99.90;;;;;;5097121;28;20049;-56
2022/11/14 06:38:38;;;;;;;13.23;7.40;;;9.70;99.90;;;;;;5092231;28;20044;-55
2022/11/14 06:41:06;;;;;;;13.68;8.18;;;9.70;99.90;;;;;;5096867;28;20048;-54
2022/11/14 06:43:33;;;;;;;13.43;8.43;;;9.60;99.90;;;;;;5110513;28;20048;-56
2022/11/14 06:46:00;;;;;;;12.40;8.60;;;9.60;99.90;;;;;;5097825;28;20058;-56
2022/11/14 06:48:28;;;;;;;12.98;8.65;;;9.50;99.90;;;;;;5090702;28;20039;-56
2022/11/14 06:50:56;;;;;;;17.17;9.85;;;9.50;99.90;;;;;;5100068;28;20101;-55
2022/11/14 06:53:23;;;;;;;16.00;9.85;;;9.40;99.90;;;;;;5106058;28;20044;-56
2022/11/14 06:55:57;;;;;;;14.52;8.68;;;9.30;99.90;;;;;;5101797;28;20139;-53
2022/11/14 06:58:24;;;;;;;;;;;9.30;99.90;;;;;;5101415;28;20036;-54
2022/11/14 07:00:51;;;;;;;13.57;8.15;;;9.30;99.90;;;;;;5104548;28;19926;-55
2022/11/14 07:03:18;;;;;;;12.98;8.63;;;9.30;99.90;;;;;;5095873;28;20047;-56
2022/11/14 07:05:45;;;;;;;12.13;8.35;;;9.20;99.90;;;;;;5091920;28;20113;-56
2022/11/14 07:08:11;;;;;;;18.10;9.32;;;9.20;99.90;;;;;;5097914;28;20486;-55
2022/11/14 07:10:45;;;;;;;14.75;9.98;;;9.20;99.90;;;;;;5090345;28;20052;-54
2022/11/14 07:13:12;;;;;;;18.75;10.15;;;9.20;99.90;;;;;;5099250;28;20040;-59
2022/11/14 07:15:38;;;;;;;21.17;9.88;;;9.20;99.90;;;;;;5089199;28;20058;-55
2022/11/14 07:18:05;;;;;;;23.02;12.70;;;9.30;99.90;;;;;;5100051;28;20040;-54
2022/11/14 07:20:32;;;;;;;21.63;11.95;;;9.30;99.90;;;;;;5089270;28;20072;-56
2022/11/14 07:22:59;;;;;;;21.73;12.13;;;9.30;99.90;;;;;;5099910;28;20087;-55
2022/11/14 07:25:26;;;;;;;27.98;12.13;;;9.30;99.90;;;;;;5098384;28;20043;-54
2022/11/14 07:27:52;;;;;;;30.52;12.90;;;9.40;99.90;;;;;;5095463;28;20059;-52
2022/11/14 07:30:19;;;;;;;30.38;11.40;;;9.30;99.90;;;;;;5108525;28;20083;-52
2022/11/14 07:32:49;;;;;;;45.97;12.85;;;9.30;99.90;;;;;;5095823;28;20108;-56
2022/11/14 07:35:15;;;;;;;46.45;13.02;;;9.30;99.90;;;;;;5090086;28;20062;-56
2022/11/14 07:37:42;;;;;;;31.25;11.00;;;9.30;99.90;;;;;;5097212;28;20101;-56
2022/11/14 07:40:10;;;;;;;28.27;11.23;;;9.20;99.90;;;;;;5089010;28;20056;-57
2022/11/14 07:42:37;;;;;;;31.77;10.05;;;9.20;99.90;;;;;;5099465;28;20048;-55
2022/11/14 07:45:04;;;;;;;27.20;10.63;;;9.20;99.90;;;;;;5104418;28;20134;-56
2022/11/14 07:47:31;;;;;;;18.20;9.30;;;9.10;99.90;;;;;;5100917;28;20090;-57
2022/11/14 07:49:58;;;;;;;21.33;10.00;;;9.10;99.90;;;;;;5099576;28;20051;-57
2022/11/14 07:52:24;;;;;;;17.63;9.77;;;9.10;99.90;;;;;;5102237;28;20058;-54
2022/11/14 07:54:51;;;;;;;19.65;9.43;;;9.20;99.90;;;;;;5099763;28;20051;-55
2022/11/14 07:57:18;;;;;;;18.80;8.18;;;9.10;99.90;;;;;;5103179;28;20059;-56
2022/11/14 07:59:45;;;;;;;13.93;8.45;;;9.10;99.90;;;;;;5097066;28;20513;-57
2022/11/14 08:02:13;;;;;;;11.85;7.03;;;9.10;99.90;;;;;;5106546;28;20071;-55
2022/11/14 08:04:42;;;;;;;11.98;7.28;;;9.20;99.90;;;;;;5095492;28;20050;-56
2022/11/14 08:07:09;;;;;;;10.48;6.63;;;9.20;99.90;;;;;;5103220;28;20047;-56
2022/11/14 08:09:36;;;;;;;10.68;6.55;;;9.30;99.90;;;;;;5075577;28;20054;-54
2022/11/14 08:12:03;;;;;;;13.48;5.72;;;9.30;99.90;;;;;;5105118;28;20131;-57
2022/11/14 08:14:29;;;;;;;19.98;6.57;;;9.40;99.90;;;;;;5091449;28;20046;-55
2022/11/14 08:16:56;;;;;;;40.20;6.65;;;9.50;99.90;;;;;;5080751;28;20044;-57
2022/11/14 08:19:23;;;;;;;16.77;6.28;;;9.50;99.90;;;;;;5088220;28;20348;-57
2022/11/14 08:21:50;;;;;;;22.02;7.03;;;9.60;99.90;;;;;;5093584;28;20067;-55
2022/11/14 08:24:17;;;;;;;31.58;7.95;;;9.70;99.90;;;;;;5088471;28;20117;-55
2022/11/14 08:26:44;;;;;;;37.67;8.90;;;9.80;99.90;;;;;;5090126;28;20112;-56
2022/11/14 08:29:11;;;;;;;39.10;7.88;;;9.90;99.90;;;;;;5097035;28;20059;-57
2022/11/14 08:31:37;;;;;;;43.53;7.00;;;10.00;99.90;;;;;;5085820;28;20134;-55
2022/11/14 08:34:04;;;;;;;49.40;8.40;;;10.00;99.90;;;;;;5099860;28;20052;-55
2022/11/14 08:36:31;;;;;;;17.67;6.63;;;10.10;99.90;;;;;;5101492;28;20078;-52
2022/11/14 08:38:58;;;;;;;64.55;8.50;;;10.20;99.90;;;;;;5102113;28;20401;-52
2022/11/14 08:41:28;;;;;;;42.55;7.70;;;10.20;99.90;;;;;;5098966;28;20101;-56
2022/11/14 08:43:54;;;;;;;29.27;8.57;;;10.20;99.90;;;;;;5103985;28;20097;-57
2022/11/14 08:46:23;;;;;;;45.38;8.40;;;10.30;99.90;;;;;;5083201;28;20076;-53
2022/11/14 08:48:50;;;;;;;35.33;8.95;;;10.30;99.90;;;;;;5090465;28;20074;-56
2022/11/14 08:51:17;;;;;;;28.77;8.52;;;10.40;99.90;;;;;;5094765;28;20044;-57
2022/11/14 08:53:44;;;;;;;26.75;8.57;;;10.50;99.90;;;;;;5105214;28;20075;-55
2022/11/14 08:56:10;;;;;;;26.90;9.18;;;10.60;99.90;;;;;;5095493;28;20040;-56
2022/11/14 08:58:37;;;;;;;28.52;10.15;;;10.70;99.90;;;;;;5093153;28;20482;-55
2022/11/14 09:01:06;;;;;;;21.38;9.55;;;10.70;99.90;;;;;;5098470;28;20044;-58
2022/11/14 09:03:33;;;;;;;20.85;9.43;;;10.70;99.90;;;;;;5086934;28;20040;-51
2022/11/14 09:06:00;;;;;;;18.75;8.63;;;10.80;99.90;;;;;;5099004;28;20071;-52
2022/11/14 09:08:27;;;;;;;15.40;8.43;;;10.90;99.90;;;;;;5087620;28;20059;-53
2022/11/14 09:10:58;;;;;;;11.68;8.30;;;10.90;99.90;;;;;;5101918;28;20048;-53
2022/11/14 09:13:32;;;;;;;16.00;7.18;;;10.90;99.90;;;;;;5111195;28;20463;-53
2022/11/14 09:15:58;;;;;;;14.90;7.72;;;11.00;99.90;;;;;;5108283;28;20544;-57
2022/11/14 09:18:25;;;;;;;22.65;8.15;;;11.00;99.90;;;;;;5092025;28;20129;-54
2022/11/14 09:20:52;;;;;;;15.75;8.00;;;11.10;99.90;;;;;;5099201;28;20096;-55
2022/11/14 09:23:19;;;;;;;14.25;8.48;;;11.10;99.90;;;;;;5094217;28;20055;-53
2022/11/14 09:25:46;;;;;;;24.00;8.30;;;11.10;99.90;;;;;;5096736;28;20553;-55
2022/11/14 09:28:13;;;;;;;16.25;9.30;;;11.20;99.90;;;;;;5096046;28;20436;-56
2022/11/14 09:30:40;;;;;;;18.30;10.00;;;11.20;99.90;;;;;;5094024;28;20097;-54
2022/11/14 09:33:10;;;;;;;14.23;10.18;;;11.20;99.90;;;;;;5099892;28;20043;-56
2022/11/14 09:35:37;;;;;;;24.77;9.48;;;11.20;99.90;;;;;;5101380;28;20067;-53
2022/11/14 09:38:06;;;;;;;20.58;8.20;;;11.20;99.90;;;;;;5100086;28;20048;-57
2022/11/14 09:41:08;;;;;;;20.70;8.65;;;11.00;99.90;;;;;;5096973;28;20139;-56
2022/11/14 09:43:47;;;;;;;24.73;8.70;;;10.90;99.90;;;;;;5080887;28;20155;-54
2022/11/14 09:46:20;;;;;;;17.73;8.45;;;11.00;99.90;;;;;;5100404;28;20126;-53
2022/11/14 09:48:46;;;;;;;13.95;9.35;;;11.00;99.90;;;;;;5062867;28;20087;-53
2022/11/14 09:51:28;;;;;;;21.17;9.73;;;11.10;99.90;;;;;;5104070;28;20052;-51
2022/11/14 09:53:59;;;;;;;17.88;10.73;;;11.10;99.90;;;;;;5088168;28;20373;-56
2022/11/14 09:56:26;;;;;;;17.05;9.50;;;11.20;99.90;;;;;;5105225;28;20532;-54
2022/11/14 09:58:56;;;;;;;15.27;10.20;;;11.20;99.90;;;;;;5080962;28;20048;-56
2022/11/14 10:01:39;;;;;;;16.10;9.77;;;11.30;99.90;;;;;;5073063;28;20056;-57
2022/11/14 10:04:32;;;;;;;15.38;8.88;;;11.30;99.90;;;;;;5079472;28;20055;-58
2022/11/14 10:06:58;;;;;;;14.77;9.20;;;11.40;99.90;;;;;;5094403;28;20402;-56
2022/11/14 10:10:06;;;;;;;19.17;10.75;;;11.50;99.90;;;;;;5096694;28;20048;-56
2022/11/14 10:13:03;;;;;;;17.75;9.20;;;11.60;99.90;;;;;;5079542;28;20124;-56
2022/11/14 10:15:41;;;;;;;23.50;10.32;;;11.60;99.90;;;;;;5050931;28;20051;-54
2022/11/14 10:18:42;;;;;;;21.08;10.38;;;11.60;99.90;;;;;;5081975;28;20058;-57
2022/11/14 10:21:20;;;;;;;18.77;10.30;;;11.60;99.90;;;;;;5072927;28;20044;-53
2022/11/14 10:24:09;;;;;;;19.88;10.60;;;11.70;99.90;;;;;;5078755;28;20047;-58
2022/11/14 10:26:41;;;;;;;17.90;10.57;;;11.70;99.90;;;;;;5093613;28;20048;-53
2022/11/14 10:29:27;;;;;;;18.92;10.93;;;11.70;99.90;;;;;;5072654;28;20047;-53
2022/11/14 10:32:22;;;;;;;22.77;9.93;;;11.80;99.90;;;;;;5091424;28;20070;-51
2022/11/14 10:35:10;;;;;;;18.73;9.90;;;11.80;99.90;;;;;;5077100;28;20687;-54
2022/11/14 10:38:02;;;;;;;19.63;10.30;;;11.90;99.90;;;;;;5090515;28;20043;-56
2022/11/14 10:40:44;;;;;;;18.88;10.25;;;12.00;99.90;;;;;;5102283;28;20486;-55
2022/11/14 10:43:20;;;;;;;21.60;10.55;;;11.90;99.90;;;;;;5103575;28;20036;-56
2022/11/14 10:45:51;;;;;;;18.65;10.93;;;12.00;99.90;;;;;;5103128;28;20073;-56
2022/11/14 10:48:30;;;;;;;16.52;10.32;;;12.10;99.90;;;;;;5086066;28;20040;-55
2022/11/14 10:50:58;;;;;;;18.92;11.43;;;12.10;99.90;;;;;;5102543;28;20481;-56
2022/11/14 10:53:59;;;;;;;21.77;10.00;;;12.10;99.90;;;;;;5086701;28;20062;-55
2022/11/14 10:56:26;;;;;;;15.25;9.68;;;12.20;99.90;;;;;;5105347;28;20386;-57
2022/11/14 10:58:52;;;;;;;17.08;9.43;;;12.30;99.90;;;;;;5102385;28;20048;-54
2022/11/14 11:01:31;;;;;;;15.38;9.48;;;12.30;99.90;;;;;;5102686;28;20047;-54
2022/11/14 11:04:00;;;;;;;17.40;10.57;;;12.40;99.90;;;;;;5102654;28;20048;-55
2022/11/14 11:06:27;;;;;;;20.95;9.05;;;12.40;99.90;;;;;;5068267;28;20055;-56
2022/11/14 11:11:40;;;;;;;17.67;9.80;;;12.60;99.90;;;;;;5102495;28;20055;-56
2022/11/14 11:14:16;;;;;;;23.45;11.25;;;12.60;99.90;;;;;;5085893;28;20130;-55
2022/11/14 11:16:43;;;;;;;16.55;9.38;;;12.70;99.90;;;;;;5102020;28;20058;-55
2022/11/14 11:19:17;;;;;;;13.68;9.15;;;12.80;99.90;;;;;;5071979;28;20040;-56
2022/11/14 11:21:49;;;;;;;14.35;8.90;;;12.80;99.90;;;;;;5082537;28;20116;-57
2022/11/14 11:24:42;;;;;;;17.17;9.90;;;12.90;99.90;;;;;;5105638;28;20040;-56
2022/11/14 11:27:19;;;;;;;20.52;8.93;;;12.80;99.90;;;;;;5098880;28;20051;-55
2022/11/14 11:29:46;;;;;;;17.00;9.80;;;12.80;99.90;;;;;;5102816;28;20406;-56
2022/11/14 11:32:23;;;;;;;16.42;9.73;;;12.90;99.90;;;;;;5100605;28;20048;-57
2022/11/14 11:34:53;;;;;;;15.80;9.07;;;12.90;99.90;;;;;;5103501;28;20036;-59
2022/11/14 11:37:31;;;;;;;13.20;8.27;;;13.00;99.90;;;;;;5100692;28;20055;-55
2022/11/14 11:40:01;;;;;;;14.57;8.77;;;13.10;99.90;;;;;;5086434;28;20051;-53
2022/11/14 11:42:35;;;;;;;16.33;9.55;;;13.20;99.90;;;;;;5082528;28;20082;-56
2022/11/14 11:45:22;;;;;;;21.00;10.50;;;13.20;99.90;;;;;;5086567;28;20040;-56
2022/11/14 11:48:02;;;;;;;14.55;10.32;;;13.20;99.90;;;;;;5067003;28;20069;-56
2022/11/14 11:50:29;;;;;;;19.85;11.57;;;13.20;99.90;;;;;;5069973;28;20325;-57
2022/11/14 11:53:01;;;;;;;16.35;11.02;;;13.20;99.90;;;;;;5082663;28;20450;-57
2022/11/14 11:55:33;;;;;;;28.27;14.13;;;13.20;99.90;;;;;;5085541;28;20044;-58
2022/11/14 11:58:20;;;;;;;16.80;9.57;;;13.20;99.90;;;;;;5081966;28;20066;-58
2022/11/14 12:00:50;;;;;;;18.60;10.38;;;13.20;99.90;;;;;;5102267;28;20048;-58
2022/11/14 12:03:17;;;;;;;19.27;12.50;;;13.30;99.90;;;;;;5083121;28;20082;-57
2022/11/14 12:06:14;;;;;;;14.55;9.93;;;13.30;99.90;;;;;;5085600;28;20058;-58
2022/11/14 12:09:03;;;;;;;15.35;9.52;;;13.40;99.90;;;;;;5102573;28;20097;-57
2022/11/14 12:11:31;;;;;;;17.13;9.52;;;13.40;99.90;;;;;;5098751;28;20079;-54
2022/11/14 12:14:23;;;;;;;14.80;8.75;;;13.40;99.90;;;;;;5085087;28;20146;-55
2022/11/14 12:16:56;;;;;;;14.95;9.45;;;13.40;99.90;;;;;;5097437;28;20044;-59
2022/11/14 12:19:26;;;;;;;12.18;8.32;;;13.50;99.90;;;;;;5105627;28;20521;-57
2022/11/14 12:22:06;;;;;;;15.02;9.95;;;13.50;99.90;;;;;;5098744;28;20048;-54
2022/11/14 12:24:33;;;;;;;14.30;9.30;;;13.60;99.90;;;;;;5087377;28;20044;-57
2022/11/14 12:27:06;;;;;;;16.17;10.05;;;13.60;99.90;;;;;;5098945;28;20044;-54
2022/11/14 12:29:47;;;;;;;17.07;9.33;;;13.60;99.90;;;;;;5104356;28;20071;-54
2022/11/14 12:32:21;;;;;;;15.80;8.32;;;13.50;99.90;;;;;;5064712;28;20044;-57
2022/11/14 12:34:48;;;;;;;16.45;9.40;;;13.60;99.90;;;;;;5070654;28;20067;-55
2022/11/14 12:37:32;;;;;;;13.57;8.77;;;13.70;99.90;;;;;;5081447;28;20126;-55
2022/11/14 12:40:14;;;;;;;12.80;8.88;;;13.80;99.90;;;;;;5104890;28;20277;-54
2022/11/14 12:42:46;;;;;;;17.83;9.55;;;13.80;99.90;;;;;;5097863;28;20518;-55
2022/11/14 12:45:38;;;;;;;15.57;9.68;;;13.90;99.90;;;;;;5074036;28;20563;-57
2022/11/14 12:48:25;;;;;;;19.52;9.80;;;14.00;99.90;;;;;;5088079;28;20048;-58
2022/11/14 12:50:52;;;;;;;18.25;10.80;;;14.00;99.90;;;;;;5074382;28;20143;-56
2022/11/14 12:53:34;;;;;;;19.48;11.63;;;14.00;99.90;;;;;;5077163;28;20116;-57
2022/11/14 12:56:16;;;;;;;16.95;10.07;;;13.90;99.90;;;;;;5090836;28;20055;-56
2022/11/14 12:59:08;;;;;;;13.75;9.10;;;14.00;99.90;;;;;;5078276;28;20068;-54